Time;durP1;ratioP1;P1;durP2;ratioP2;P2;SDS_P1;SDS_P2;PMS_P1;PMS_P2;Temp;Humidity;BMP_temperature;BMP_pressure;BME280_temperature;BME280_humidity;BME280_pressure;Samples;Min_cycle;Max_cycle;Signal;HPM_P1;HPM_P2
2022/07/28 00:00:46;;;;;;;3.95;1.98;;;;;;;15.40;63.97;101938.63;5019312;28;20112;-54
2022/07/28 00:03:11;;;;;;;3.38;1.90;;;;;;;15.45;64.27;101940.78;5026194;28;20029;-56
2022/07/28 00:05:37;;;;;;;7.72;2.00;;;;;;;15.44;63.99;101939.94;5022858;28;20030;-55
2022/07/28 00:08:02;;;;;;;5.85;1.98;;;;;;;15.35;64.01;101942.84;5021892;28;20029;-56
2022/07/28 00:10:28;;;;;;;4.20;1.75;;;;;;;15.35;64.65;101946.34;5020240;28;20704;-56
2022/07/28 00:12:53;;;;;;;6.78;1.80;;;;;;;15.31;64.40;101936.97;5022840;28;20406;-56
2022/07/28 00:15:18;;;;;;;4.72;1.65;;;;;;;15.29;64.43;101936.31;5024855;28;20065;-56
2022/07/28 00:17:44;;;;;;;5.05;2.75;;;;;;;15.27;64.56;101932.16;5018520;28;20017;-56
2022/07/28 00:20:09;;;;;;;3.03;1.60;;;;;;;15.25;64.45;101932.31;5021263;28;20037;-56
2022/07/28 00:22:40;;;;;;;4.63;1.48;;;;;;;15.22;64.87;101926.50;5019629;28;20033;-56
2022/07/28 00:25:06;;;;;;;4.45;1.58;;;;;;;15.14;64.77;101941.59;5024239;28;20404;-54
2022/07/28 00:27:31;;;;;;;4.18;1.63;;;;;;;15.13;64.63;101939.09;5022158;28;20037;-54
2022/07/28 00:29:56;;;;;;;3.22;1.65;;;;;;;15.14;64.27;101936.22;5023868;28;20112;-55
2022/07/28 00:32:22;;;;;;;3.33;1.65;;;;;;;15.09;64.81;101941.28;5019566;28;20029;-54
2022/07/28 00:34:47;;;;;;;6.53;1.80;;;;;;;15.05;64.53;101941.78;5022337;28;20083;-55
2022/07/28 00:37:12;;;;;;;4.55;1.70;;;;;;;15.12;65.09;101930.22;5021045;28;20486;-55
2022/07/28 00:39:37;;;;;;;3.92;1.55;;;;;;;15.02;65.06;101926.06;5029165;28;20400;-55
2022/07/28 00:42:03;;;;;;;3.45;1.60;;;;;;;14.98;64.92;101932.78;5023267;28;20029;-55
2022/07/28 00:44:28;;;;;;;4.15;1.50;;;;;;;14.95;65.11;101936.63;5023253;28;20557;-55
2022/07/28 00:46:53;;;;;;;5.43;1.50;;;;;;;14.94;64.76;101931.44;5020464;28;20025;-54
2022/07/28 00:49:19;;;;;;;4.28;1.60;;;;;;;14.90;64.81;101924.78;5026709;28;20033;-56
2022/07/28 00:51:45;;;;;;;4.20;1.67;;;;;;;14.87;65.25;101920.63;5023990;28;20390;-54
2022/07/28 00:54:10;;;;;;;4.60;1.50;;;;;;;14.86;64.84;101922.47;5023279;28;20030;-53
2022/07/28 00:56:35;;;;;;;4.55;1.77;;;;;;;14.87;64.48;101920.63;5024027;28;20032;-55
2022/07/28 00:59:01;;;;;;;4.38;1.30;;;;;;;14.85;64.59;101918.13;5023054;28;20032;-55
2022/07/28 01:01:26;;;;;;;4.18;1.40;;;;;;;14.80;64.44;101917.81;5023827;28;20095;-55
2022/07/28 01:03:56;;;;;;;3.65;1.35;;;;;;;14.76;64.57;101912.97;5021494;28;20037;-55
2022/07/28 01:06:30;;;;;;;5.32;1.60;;;;;;;14.75;64.58;101909.47;5019031;28;20148;-55
2022/07/28 01:09:09;;;;;;;4.93;1.40;;;;;;;14.73;64.70;101916.78;5021630;28;20021;-56
2022/07/28 01:11:51;;;;;;;3.95;1.60;;;;;;;14.71;64.91;101916.13;5020276;28;20040;-55
2022/07/28 01:14:35;;;;;;;3.80;1.50;;;;;;;14.65;64.83;101913.31;5022241;28;20732;-55
2022/07/28 01:17:06;;;;;;;4.93;1.65;;;;;;;14.63;64.75;101907.31;5021141;28;20033;-55
2022/07/28 01:19:40;;;;;;;2.78;1.52;;;;;;;14.56;65.09;101909.84;5022447;28;20037;-54
2022/07/28 01:22:09;;;;;;;3.58;1.38;;;;;;;14.53;64.85;101913.69;5022130;28;20025;-54
2022/07/28 01:24:46;;;;;;;;;;;;;;;14.71;64.66;101907.28;5023079;28;20025;-54
2022/07/28 01:27:49;;;;;;;3.80;1.58;;;;;;;14.59;64.96;101911.34;5019657;28;19928;-54
2022/07/28 01:30:35;;;;;;;5.68;1.80;;;;;;;14.52;65.31;101903.16;5020797;28;20033;-54
2022/07/28 01:33:07;;;;;;;4.75;1.50;;;;;;;14.43;65.23;101910.34;5021019;28;20180;-55
2022/07/28 01:35:40;;;;;;;7.55;1.80;;;;;;;14.38;65.18;101906.50;5019572;28;20041;-55
2022/07/28 01:38:10;;;;;;;5.05;1.70;;;;;;;14.32;65.27;101904.50;5010240;28;20088;-52
2022/07/28 01:40:38;;;;;;;3.58;1.40;;;;;;;14.30;65.52;101899.31;5022101;28;20029;-54
2022/07/28 01:43:06;;;;;;;3.25;1.50;;;;;;;14.29;65.75;101894.97;5022692;28;20048;-54
2022/07/28 01:45:32;;;;;;;3.95;1.60;;;;;;;14.26;65.64;101890.81;5023887;28;20612;-55
2022/07/28 01:48:00;;;;;;;5.88;1.70;;;;;;;14.24;65.55;101892.00;5027353;28;20040;-54
2022/07/28 01:50:26;;;;;;;4.88;1.77;;;;;;;14.21;65.78;101884.31;5021397;28;20108;-55
2022/07/28 01:52:54;;;;;;;2.58;1.30;;;;;;;14.21;65.70;101885.16;5017846;28;20026;-55
2022/07/28 01:55:22;;;;;;;5.50;1.60;;;;;;;14.18;66.20;101890.00;5022201;28;20049;-55
2022/07/28 01:57:49;;;;;;;5.40;1.70;;;;;;;14.17;65.87;101893.69;5021143;28;20035;-55
2022/07/28 02:00:15;;;;;;;4.10;1.85;;;;;;;14.17;65.68;101886.50;5020591;28;20025;-56
2022/07/28 02:02:45;;;;;;;7.13;1.80;;;;;;;14.16;65.71;101884.78;5021685;28;20017;-53
2022/07/28 02:05:15;;;;;;;2.90;1.50;;;;;;;14.14;65.51;101884.13;5030231;28;20040;-55
2022/07/28 02:07:43;;;;;;;4.63;1.70;;;;;;;14.08;65.25;101874.13;5025542;28;20079;-53
2022/07/28 02:10:11;;;;;;;3.53;1.80;;;;;;;14.09;64.96;101875.78;5032087;28;20052;-52
2022/07/28 02:12:38;;;;;;;4.60;1.50;;;;;;;14.09;64.79;101880.31;5029156;28;20039;-53
2022/07/28 02:15:07;;;;;;;4.78;1.70;;;;;;;13.98;64.94;101872.63;5024024;28;20021;-53
2022/07/28 02:17:34;;;;;;;5.65;2.72;;;;;;;14.01;65.12;101874.97;5026838;28;20045;-56
2022/07/28 02:20:00;;;;;;;5.25;2.33;;;;;;;13.94;64.90;101872.13;5030457;28;21318;-55
2022/07/28 02:22:26;;;;;;;7.35;2.40;;;;;;;13.94;65.23;101874.81;5019298;28;20033;-54
2022/07/28 02:24:55;;;;;;;5.55;2.20;;;;;;;13.90;65.35;101866.31;5021796;28;20064;-56
2022/07/28 02:27:20;;;;;;;5.22;2.22;;;;;;;13.91;65.36;101875.97;5024011;28;20155;-55
2022/07/28 02:29:55;;;;;;;8.38;2.40;;;;;;;13.89;65.57;101871.81;5028572;28;20121;-55
2022/07/28 02:32:39;;;;;;;3.90;2.00;;;;;;;13.92;65.77;101876.81;5021737;28;20051;-54
2022/07/28 02:35:09;;;;;;;5.22;2.10;;;;;;;13.88;65.89;101870.97;5032374;28;20026;-55
2022/07/28 02:37:38;;;;;;;6.22;2.17;;;;;;;13.85;65.48;101865.94;5030717;28;20112;-55
2022/07/28 02:40:08;;;;;;;3.63;2.20;;;;;;;13.89;65.30;101872.66;5028945;28;20099;-55
2022/07/28 02:42:35;;;;;;;5.40;2.17;;;;;;;13.84;65.57;101874.13;5027953;28;20501;-55
2022/07/28 02:45:07;;;;;;;4.85;2.20;;;;;;;13.86;65.31;101872.94;5023278;28;20066;-55
2022/07/28 02:47:37;;;;;;;5.13;2.30;;;;;;;13.83;65.63;101872.47;5019139;28;20044;-55
2022/07/28 02:50:04;;;;;;;4.05;2.30;;;;;;;13.78;65.52;101870.28;5022728;28;20406;-53
2022/07/28 02:52:31;;;;;;;5.78;2.67;;;;;;;13.76;66.00;101868.78;5029989;28;20120;-55
2022/07/28 02:54:59;;;;;;;5.03;2.40;;;;;;;13.81;66.22;101871.78;5017868;28;20033;-53
2022/07/28 02:57:26;;;;;;;6.55;2.70;;;;;;;13.78;66.29;101869.47;5018823;28;20140;-55
2022/07/28 02:59:52;;;;;;;5.50;2.70;;;;;;;13.76;66.62;101869.63;5019562;28;20026;-53
2022/07/28 03:02:21;;;;;;;6.90;2.80;;;;;;;13.70;66.52;101867.63;5022001;28;20609;-54
2022/07/28 03:05:01;;;;;;;8.30;3.47;;;;;;;13.76;66.57;101874.13;5021468;28;20025;-52
2022/07/28 03:07:28;;;;;;;6.00;3.30;;;;;;;13.77;66.66;101873.13;5021834;28;20033;-55
2022/07/28 03:09:53;;;;;;;7.47;3.47;;;;;;;13.74;66.63;101868.97;5020766;28;20572;-54
2022/07/28 03:12:19;;;;;;;7.80;3.92;;;;;;;13.74;66.62;101863.63;5023227;28;20026;-54
2022/07/28 03:14:44;;;;;;;10.52;5.30;;;;;;;13.68;66.85;101864.28;5026068;28;20536;-55
2022/07/28 03:17:10;;;;;;;11.60;5.53;;;;;;;13.64;67.09;101865.63;5019706;28;20033;-54
2022/07/28 03:19:35;;;;;;;13.30;5.90;;;;;;;13.61;67.24;101879.31;5022188;28;20018;-54
2022/07/28 03:22:01;;;;;;;13.30;5.57;;;;;;;13.58;67.25;101869.75;5019041;28;20032;-54
2022/07/28 03:24:36;;;;;;;13.35;6.05;;;;;;;13.55;67.07;101869.25;5021661;28;20490;-55
2022/07/28 03:27:16;;;;;;;13.70;6.13;;;;;;;13.53;67.31;101866.75;5019411;28;20070;-56
2022/07/28 03:29:48;;;;;;;12.55;5.45;;;;;;;13.49;67.39;101876.09;5023306;28;20022;-56
2022/07/28 03:32:16;;;;;;;11.07;5.82;;;;;;;13.45;67.39;101880.09;5018286;28;20075;-54
2022/07/28 03:34:42;;;;;;;17.13;6.32;;;;;;;13.45;67.45;101880.09;5021839;28;20021;-54
2022/07/28 03:37:24;;;;;;;15.55;6.68;;;;;;;13.45;67.84;101884.59;5019919;28;20647;-54
2022/07/28 03:39:52;;;;;;;21.35;6.35;;;;;;;13.39;67.89;101885.25;5019788;28;20052;-55
2022/07/28 03:42:19;;;;;;;12.70;6.18;;;;;;;13.36;67.73;101883.75;5023581;28;20487;-54
2022/07/28 03:44:46;;;;;;;11.43;5.60;;;;;;;13.31;67.97;101884.25;5022921;28;20026;-56
2022/07/28 03:47:11;;;;;;;9.35;4.97;;;;;;;13.32;68.23;101874.41;5024621;28;21200;-55
2022/07/28 03:49:37;;;;;;;8.60;4.40;;;;;;;13.29;68.40;101878.22;5020802;28;20048;-55
2022/07/28 03:52:03;;;;;;;10.57;4.60;;;;;;;13.28;68.20;101879.22;5022761;28;20032;-56
2022/07/28 03:54:28;;;;;;;7.95;4.15;;;;;;;13.25;68.29;101882.22;5025678;28;20025;-51
2022/07/28 03:56:53;;;;;;;7.32;3.78;;;;;;;13.20;68.19;101881.88;5017738;28;20455;-55
2022/07/28 03:59:19;;;;;;;7.15;3.47;;;;;;;13.17;68.45;101876.00;5023351;28;20268;-55
2022/07/28 04:01:44;;;;;;;7.35;3.60;;;;;;;13.13;68.51;101875.47;5027997;28;20025;-56
2022/07/28 04:04:10;;;;;;;9.20;3.50;;;;;;;13.08;68.56;101877.81;5022622;28;20391;-56
2022/07/28 04:06:35;;;;;;;7.07;3.55;;;;;;;13.07;68.89;101881.47;5028894;28;20116;-55
2022/07/28 04:09:00;;;;;;;5.30;3.00;;;;;;;13.06;68.69;101877.13;5024874;28;20108;-56
2022/07/28 04:11:26;;;;;;;7.25;3.05;;;;;;;13.02;69.07;101876.63;5019236;28;20079;-55
2022/07/28 04:13:51;;;;;;;5.95;2.88;;;;;;;12.94;68.89;101862.41;5024782;28;20032;-56
2022/07/28 04:16:16;;;;;;;9.73;2.72;;;;;;;12.94;69.29;101873.91;5024224;28;20082;-55
2022/07/28 04:18:42;;;;;;;5.35;2.90;;;;;;;12.96;69.03;101879.06;5028084;28;20021;-53
2022/07/28 04:21:07;;;;;;;5.85;2.50;;;;;;;12.91;68.90;101871.56;5023642;28;20352;-57
2022/07/28 04:23:32;;;;;;;8.57;3.38;;;;;;;12.94;69.30;101875.72;5023288;28;20029;-56
2022/07/28 04:25:57;;;;;;;6.22;2.28;;;;;;;12.94;69.41;101873.91;5018060;28;20546;-55
2022/07/28 04:28:24;;;;;;;3.58;2.28;;;;;;;12.93;69.34;101872.22;5026397;28;20593;-54
2022/07/28 04:30:49;;;;;;;6.32;2.40;;;;;;;12.93;69.48;101879.41;5027813;28;20026;-55
2022/07/28 04:33:14;;;;;;;5.93;2.30;;;;;;;12.93;69.47;101871.41;5021882;28;20055;-53
2022/07/28 04:35:40;;;;;;;4.68;2.20;;;;;;;12.92;69.50;101872.41;5025172;28;20022;-54
2022/07/28 04:38:06;;;;;;;7.20;2.65;;;;;;;12.91;69.49;101871.56;5020981;28;20108;-54
2022/07/28 04:40:33;;;;;;;4.82;2.33;;;;;;;12.95;69.81;101875.56;5019997;28;20514;-55
2022/07/28 04:42:59;;;;;;;3.75;2.40;;;;;;;12.95;69.60;101877.41;5023299;28;20104;-55
2022/07/28 04:45:24;;;;;;;7.28;2.10;;;;;;;12.95;70.00;101880.06;5023447;28;20554;-55
2022/07/28 04:47:50;;;;;;;8.25;2.30;;;;;;;13.00;69.72;101873.25;5024432;28;20562;-55
2022/07/28 04:50:18;;;;;;;5.65;2.33;;;;;;;13.02;69.95;101873.13;5022357;28;20025;-54
2022/07/28 04:52:47;;;;;;;7.03;2.30;;;;;;;13.02;70.02;101870.47;5020435;28;20104;-55
2022/07/28 04:55:12;;;;;;;6.45;2.13;;;;;;;13.01;70.10;101863.44;5024945;28;20391;-56
2022/07/28 04:57:38;;;;;;;5.45;2.40;;;;;;;13.05;70.35;101862.13;5030493;28;20529;-55
2022/07/28 05:00:13;;;;;;;5.25;2.10;;;;;;;13.08;70.01;101869.81;5022504;28;20029;-54
2022/07/28 05:02:40;;;;;;;5.88;2.00;;;;;;;13.11;70.30;101868.66;5019108;28;20073;-55
2022/07/28 05:05:07;;;;;;;12.40;2.20;;;;;;;13.14;70.48;101869.16;5023062;28;20041;-54
2022/07/28 05:07:32;;;;;;;10.07;2.45;;;;;;;13.11;70.53;101860.66;5019873;28;20064;-55
2022/07/28 05:09:57;;;;;;;4.75;2.05;;;;;;;13.19;70.42;101868.69;5024032;28;20060;-55
2022/07/28 05:12:22;;;;;;;7.97;2.50;;;;;;;13.21;70.43;101867.53;5021900;28;20053;-55
2022/07/28 05:14:48;;;;;;;7.65;2.22;;;;;;;13.27;70.26;101882.88;5029019;28;20568;-56
2022/07/28 05:17:13;;;;;;;6.43;2.08;;;;;;;13.27;70.33;101871.38;5025471;28;20014;-54
2022/07/28 05:19:38;;;;;;;12.05;2.20;;;;;;;13.32;70.43;101874.41;5034837;28;20018;-54
2022/07/28 05:22:04;;;;;;;7.85;2.20;;;;;;;13.39;70.87;101864.75;5021129;28;20794;-56
2022/07/28 05:24:29;;;;;;;5.80;2.22;;;;;;;13.50;71.13;101876.94;5008612;28;20033;-55
2022/07/28 05:26:54;;;;;;;8.93;2.38;;;;;;;13.51;70.67;101873.25;5021664;28;20045;-55
2022/07/28 05:29:19;;;;;;;5.45;2.00;;;;;;;13.64;70.51;101878.97;5034788;28;20026;-54
2022/07/28 05:31:45;;;;;;;6.47;2.20;;;;;;;13.72;70.63;101875.47;5024911;28;20178;-55
2022/07/28 05:34:10;;;;;;;5.10;2.25;;;;;;;13.77;70.48;101876.63;5029685;28;20021;-54
2022/07/28 05:36:35;;;;;;;5.97;2.25;;;;;;;13.78;70.15;101862.28;5026356;28;20029;-54
2022/07/28 05:39:01;;;;;;;7.47;2.15;;;;;;;13.92;70.02;101869.63;5029628;28;20344;-55
2022/07/28 05:41:26;;;;;;;7.03;2.30;;;;;;;13.99;70.18;101874.31;5015227;28;20041;-54
2022/07/28 05:43:51;;;;;;;8.50;2.40;;;;;;;14.03;69.84;101878.31;5018586;28;20061;-55
2022/07/28 05:46:17;;;;;;;6.38;2.15;;;;;;;14.16;70.19;101873.28;5024323;28;20391;-54
2022/07/28 05:48:42;;;;;;;6.32;2.00;;;;;;;14.15;69.76;101871.59;5019790;28;20061;-55
2022/07/28 05:51:07;;;;;;;6.88;2.30;;;;;;;14.23;69.44;101875.13;5028738;28;20041;-51
2022/07/28 05:53:32;;;;;;;5.40;2.28;;;;;;;14.33;69.64;101876.78;5025777;28;20395;-54
2022/07/28 05:55:58;;;;;;;5.68;1.90;;;;;;;14.44;69.63;101881.78;5025278;28;20110;-53
2022/07/28 05:58:23;;;;;;;5.55;2.08;;;;;;;14.44;69.20;101871.94;5027627;28;20021;-53
2022/07/28 06:00:49;;;;;;;4.88;2.30;;;;;;;14.56;69.31;101877.75;5023610;28;20056;-55
2022/07/28 06:03:14;;;;;;;7.32;2.22;;;;;;;14.60;68.58;101876.41;5020913;28;20052;-54
2022/07/28 06:05:40;;;;;;;5.20;2.00;;;;;;;14.72;68.32;101895.56;5025221;28;20049;-56
2022/07/28 06:08:05;;;;;;;9.35;2.22;;;;;;;14.85;68.25;101886.03;5028093;28;20402;-56
2022/07/28 06:10:57;;;;;;;7.05;2.20;;;;;;;14.93;68.13;101884.31;5032195;28;20037;-55
2022/07/28 06:13:16;;;;;;;5.32;2.00;;;;;;;15.02;67.38;101880.59;5024995;28;20025;-52
2022/07/28 06:15:41;;;;;;;7.22;2.00;;;;;;;15.06;67.39;101882.75;5029822;28;20018;-55
2022/07/28 06:18:06;;;;;;;7.05;2.10;;;;;;;15.16;67.09;101877.19;5016990;28;20145;-55
2022/07/28 06:20:32;;;;;;;6.82;1.92;;;;;;;15.24;66.81;101879.81;5022494;28;20033;-54
2022/07/28 06:22:57;;;;;;;4.18;1.80;;;;;;;15.25;66.56;101875.28;5021301;28;20025;-55
2022/07/28 06:25:25;;;;;;;7.78;2.20;;;;;;;15.23;65.83;101880.00;5016710;28;20033;-53
2022/07/28 06:27:52;;;;;;;6.30;2.25;;;;;;;15.31;65.94;101874.59;5028228;28;20027;-55
2022/07/28 06:30:18;;;;;;;5.35;1.98;;;;;;;15.36;66.41;101878.41;5020891;28;20088;-53
2022/07/28 06:32:44;;;;;;;8.35;2.17;;;;;;;15.42;66.12;101876.88;5018821;28;20495;-54
2022/07/28 06:35:13;;;;;;;6.93;1.75;;;;;;;15.42;66.07;101880.38;5018794;28;20034;-54
2022/07/28 06:37:39;;;;;;;5.97;2.50;;;;;;;15.42;65.39;101876.88;5020882;28;20033;-54
2022/07/28 06:40:06;;;;;;;5.18;1.67;;;;;;;15.38;64.93;101868.38;5021937;28;20036;-54
2022/07/28 06:42:31;;;;;;;5.10;1.73;;;;;;;15.45;64.91;101868.50;5020615;28;20046;-53
2022/07/28 06:44:56;;;;;;;9.90;1.83;;;;;;;15.46;65.01;101870.16;5024325;28;20037;-54
2022/07/28 06:47:22;;;;;;;10.57;1.90;;;;;;;15.49;64.63;101864.44;5025768;28;20627;-52
2022/07/28 06:49:47;;;;;;;5.45;1.52;;;;;;;15.53;64.65;101872.94;5028020;28;20156;-55
2022/07/28 06:52:12;;;;;;;4.57;1.55;;;;;;;15.57;64.57;101872.41;5032203;28;20029;-54
2022/07/28 06:54:37;;;;;;;8.13;1.70;;;;;;;15.58;63.69;101874.09;5029243;28;20030;-55
2022/07/28 06:57:03;;;;;;;6.28;1.75;;;;;;;15.60;63.11;101874.75;5035561;28;20119;-55
2022/07/28 06:59:29;;;;;;;6.07;1.70;;;;;;;15.57;63.04;101879.59;5031149;28;20029;-55
2022/07/28 07:01:54;;;;;;;9.05;1.63;;;;;;;15.59;62.89;101875.78;5030020;28;20029;-54
2022/07/28 07:04:19;;;;;;;6.00;1.50;;;;;;;15.63;62.91;101884.31;5027264;28;20030;-55
2022/07/28 07:06:45;;;;;;;7.35;1.55;;;;;;;15.68;62.51;101884.59;5027971;28;20592;-55
2022/07/28 07:09:10;;;;;;;6.28;1.58;;;;;;;15.73;63.00;101869.66;5030081;28;20491;-55
2022/07/28 07:11:35;;;;;;;7.43;2.05;;;;;;;15.80;63.11;101864.41;5016372;28;20030;-55
2022/07/28 07:14:01;;;;;;;6.82;1.58;;;;;;;15.87;62.33;101869.88;5032386;28;20032;-53
2022/07/28 07:16:26;;;;;;;6.50;1.42;;;;;;;15.96;62.41;101868.81;5030989;28;20387;-55
2022/07/28 07:18:51;;;;;;;5.07;1.38;;;;;;;16.01;62.44;101864.56;5029229;28;20025;-55
2022/07/28 07:21:20;;;;;;;5.00;1.60;;;;;;;16.12;62.42;101871.34;5026688;28;20021;-55
2022/07/28 07:23:45;;;;;;;6.57;1.58;;;;;;;16.16;61.96;101871.78;5021157;28;20025;-55
2022/07/28 07:26:11;;;;;;;7.38;1.50;;;;;;;16.15;62.00;101876.31;5025222;28;20034;-55
2022/07/28 07:28:36;;;;;;;8.23;1.60;;;;;;;16.18;61.61;101873.28;5025235;28;20036;-55
2022/07/28 07:31:02;;;;;;;5.15;1.35;;;;;;;16.19;61.92;101874.09;5030950;28;20095;-55
2022/07/28 07:33:27;;;;;;;6.22;1.33;;;;;;;16.18;61.19;101870.59;5035162;28;20021;-55
2022/07/28 07:35:52;;;;;;;6.15;1.40;;;;;;;16.20;61.58;101870.44;5022043;28;20034;-53
2022/07/28 07:38:17;;;;;;;4.60;1.75;;;;;;;16.25;60.94;101857.31;5024051;28;20585;-54
2022/07/28 07:40:43;;;;;;;6.28;1.40;;;;;;;16.36;60.85;101865.72;5025909;28;20022;-55
2022/07/28 07:43:08;;;;;;;6.20;1.60;;;;;;;16.47;60.77;101868.97;5022264;28;20049;-54
2022/07/28 07:45:34;;;;;;;6.63;1.67;;;;;;;16.58;60.99;101864.00;5028180;28;20037;-54
2022/07/28 07:48:00;;;;;;;6.10;1.45;;;;;;;16.62;60.52;101865.28;5031262;28;20029;-53
2022/07/28 07:50:27;;;;;;;10.55;1.63;;;;;;;16.67;59.97;101862.06;5032757;28;20049;-55
2022/07/28 07:52:53;;;;;;;3.17;1.30;;;;;;;16.63;60.06;101863.44;5026562;28;20026;-56
2022/07/28 07:55:18;;;;;;;10.95;2.17;;;;;;;16.67;59.77;101854.88;5029230;28;20364;-52
2022/07/28 07:57:44;;;;;;;5.25;1.75;;;;;;;16.68;59.74;101853.84;5035582;28;20045;-55
2022/07/28 08:00:10;;;;;;;8.50;1.50;;;;;;;16.73;59.52;101858.66;5029242;28;20025;-56
2022/07/28 08:02:40;;;;;;;4.50;1.20;;;;;;;16.73;59.04;101862.16;5024772;28;20387;-55
2022/07/28 08:05:07;;;;;;;4.97;1.50;;;;;;;16.73;58.49;101855.97;5037902;28;20063;-57
2022/07/28 08:07:33;;;;;;;5.93;1.42;;;;;;;16.70;58.45;101856.34;5034508;28;20025;-55
2022/07/28 08:09:58;;;;;;;7.90;1.65;;;;;;;16.70;58.57;101850.97;5039632;28;20083;-57
2022/07/28 08:12:23;;;;;;;4.25;1.30;;;;;;;16.79;58.63;101857.94;5033915;28;20024;-56
2022/07/28 08:14:48;;;;;;;4.15;1.45;;;;;;;16.89;59.26;101861.16;5034170;28;20678;-56
2022/07/28 08:17:14;;;;;;;4.53;1.50;;;;;;;16.96;59.50;101854.00;5034146;28;20021;-56
2022/07/28 08:19:39;;;;;;;7.97;1.92;;;;;;;17.03;59.49;101846.84;5036245;28;20036;-56
2022/07/28 08:22:04;;;;;;;5.47;1.60;;;;;;;17.21;59.10;101859.03;5033825;28;20021;-56
2022/07/28 08:24:30;;;;;;;5.20;1.73;;;;;;;17.32;58.99;101855.84;5032070;28;20044;-55
2022/07/28 08:26:55;;;;;;;6.18;1.50;;;;;;;17.37;58.69;101845.41;5025434;28;20104;-55
2022/07/28 08:29:20;;;;;;;4.97;1.60;;;;;;;17.54;58.58;101856.72;5029657;28;20018;-56
2022/07/28 08:31:46;;;;;;;5.10;1.25;;;;;;;17.63;58.57;101852.84;5029526;28;20095;-55
2022/07/28 08:34:11;;;;;;;5.53;1.48;;;;;;;17.70;58.29;101848.44;5031644;28;20056;-55
2022/07/28 08:36:36;;;;;;;5.32;1.50;;;;;;;17.68;56.55;101860.41;5025013;28;20028;-55
2022/07/28 08:39:02;;;;;;;4.70;1.40;;;;;;;17.76;56.91;101854.88;5030313;28;20049;-55
2022/07/28 08:41:50;;;;;;;6.95;1.30;;;;;;;17.85;56.99;101859.09;5028203;28;20095;-55
2022/07/28 08:44:19;;;;;;;3.80;1.30;;;;;;;17.95;56.88;101863.13;5025429;28;20033;-56
2022/07/28 08:46:47;;;;;;;4.65;1.30;;;;;;;18.03;56.09;101859.47;5024848;28;20112;-55
2022/07/28 08:49:14;;;;;;;4.22;1.33;;;;;;;18.14;56.72;101863.47;5029826;28;20029;-55
2022/07/28 08:51:41;;;;;;;6.13;1.17;;;;;;;18.23;56.24;101859.63;5024006;28;20060;-56
2022/07/28 08:54:08;;;;;;;5.95;1.42;;;;;;;18.40;55.82;101860.13;5023665;28;20487;-56
2022/07/28 08:56:39;;;;;;;4.80;1.13;;;;;;;18.44;54.78;101861.41;5020346;28;20033;-56
2022/07/28 08:59:05;;;;;;;4.60;1.50;;;;;;;18.65;54.98;101863.22;5018530;28;20017;-55
2022/07/28 09:01:30;;;;;;;2.92;1.15;;;;;;;18.73;53.72;101844.19;5023505;28;20040;-55
2022/07/28 09:03:56;;;;;;;6.40;1.20;;;;;;;18.86;53.46;101846.97;5022732;28;20471;-55
2022/07/28 09:06:22;;;;;;;5.57;1.50;;;;;;;18.93;53.42;101836.22;5020372;28;20029;-55
2022/07/28 09:08:48;;;;;;;2.55;1.45;;;;;;;19.01;52.54;101838.72;5025842;28;20033;-54
2022/07/28 09:11:13;;;;;;;3.55;1.10;;;;;;;19.06;51.73;101847.84;5032905;28;20450;-57
2022/07/28 09:13:39;;;;;;;5.07;1.27;;;;;;;19.15;51.64;101835.91;5025325;28;20030;-54
2022/07/28 09:16:04;;;;;;;3.05;1.20;;;;;;;19.18;50.99;101837.34;5024994;28;20033;-55
2022/07/28 09:18:29;;;;;;;4.50;1.10;;;;;;;19.30;50.84;101837.56;5024338;28;20025;-57
2022/07/28 09:20:55;;;;;;;8.15;1.20;;;;;;;19.48;51.26;101835.97;5028527;28;20094;-56
2022/07/28 09:23:21;;;;;;;3.90;1.25;;;;;;;19.56;51.10;101839.53;5024923;28;20033;-56
2022/07/28 09:25:46;;;;;;;2.75;1.00;;;;;;;19.76;51.62;101837.69;5025321;28;20025;-55
2022/07/28 09:28:14;;;;;;;3.83;1.40;;;;;;;19.99;51.55;101832.72;5025072;28;20443;-56
2022/07/28 09:30:41;;;;;;;8.50;1.40;;;;;;;20.22;50.72;101831.41;5026102;28;20400;-55
2022/07/28 09:33:22;;;;;;;4.75;1.40;;;;;;;20.35;50.11;101823.31;5022125;28;20037;-56
2022/07/28 09:35:51;;;;;;;3.30;1.30;;;;;;;20.46;49.78;101822.69;5020177;28;20026;-56
2022/07/28 09:38:18;;;;;;;2.85;0.95;;;;;;;20.63;49.75;101817.66;5021823;28;20052;-56
2022/07/28 09:40:59;;;;;;;3.45;1.10;;;;;;;20.67;48.78;101819.72;5020168;28;20037;-55
2022/07/28 09:43:38;;;;;;;5.97;1.30;;;;;;;20.71;48.39;101807.44;5017007;28;20111;-55
2022/07/28 09:46:14;;;;;;;2.75;1.17;;;;;;;20.85;48.80;101802.84;5020872;28;20044;-55
2022/07/28 09:48:48;;;;;;;5.35;1.42;;;;;;;20.93;48.38;101794.47;5016265;28;20029;-56
2022/07/28 09:51:18;;;;;;;3.08;1.23;;;;;;;21.17;48.62;101795.59;5020200;28;20494;-56
2022/07/28 09:53:44;;;;;;;4.00;1.00;;;;;;;21.28;47.65;101786.81;5016943;28;21141;-57
2022/07/28 09:56:10;;;;;;;3.05;1.00;;;;;;;21.39;46.94;101787.97;5021008;28;20503;-58
2022/07/28 09:58:36;;;;;;;10.43;1.25;;;;;;;21.47;46.48;101792.31;5018800;28;20075;-56
2022/07/28 10:01:12;;;;;;;5.50;1.33;;;;;;;21.59;46.23;101787.81;5016698;28;20040;-56
2022/07/28 10:03:39;;;;;;;5.00;1.30;;;;;;;21.72;46.57;101776.09;5021019;28;20122;-57
2022/07/28 10:06:09;;;;;;;4.60;0.93;;;;;;;21.87;46.08;101784.69;5018940;28;20490;-57
2022/07/28 10:08:45;;;;;;;7.28;1.92;;;;;;;21.91;45.68;101783.19;5023065;28;20459;-57
2022/07/28 10:11:12;;;;;;;3.95;1.30;;;;;;;21.76;44.81;101788.94;5023064;28;20036;-58
2022/07/28 10:14:01;;;;;;;3.40;1.30;;;;;;;21.78;44.85;101797.66;5024320;28;20068;-57
2022/07/28 10:16:29;;;;;;;3.33;1.05;;;;;;;21.82;45.58;101793.47;5015758;28;20487;-57
2022/07/28 10:18:58;;;;;;;6.60;1.23;;;;;;;21.88;45.10;101791.75;5019328;28;20053;-56
2022/07/28 10:21:25;;;;;;;4.60;1.20;;;;;;;21.95;45.25;101792.50;5026160;28;20107;-57
2022/07/28 10:23:56;;;;;;;6.28;1.20;;;;;;;22.04;44.96;101780.41;5032854;28;20548;-57
2022/07/28 10:26:30;;;;;;;6.78;1.38;;;;;;;22.12;45.28;101779.25;5023813;28;20083;-57
2022/07/28 10:28:56;;;;;;;4.90;1.27;;;;;;;22.09;44.37;101787.84;5028327;28;20156;-57
2022/07/28 10:31:48;;;;;;;6.75;1.10;;;;;;;22.11;44.03;101785.72;5030472;28;20105;-58
2022/07/28 10:34:32;;;;;;;6.43;1.10;;;;;;;22.16;44.64;101784.00;5016290;28;20101;-56
2022/07/28 10:37:01;;;;;;;5.50;1.27;;;;;;;22.23;44.41;101779.34;5025898;28;20046;-57
2022/07/28 10:39:30;;;;;;;7.35;1.17;;;;;;;22.36;44.48;101783.78;5023155;28;20021;-57
2022/07/28 10:41:56;;;;;;;2.45;1.10;;;;;;;22.36;43.71;101783.78;5031541;28;20029;-57
2022/07/28 10:44:23;;;;;;;4.40;1.40;;;;;;;22.27;43.30;101777.03;5025057;28;20112;-57
2022/07/28 10:46:48;;;;;;;3.33;1.10;;;;;;;22.34;44.52;101775.06;5022053;28;20023;-57
2022/07/28 10:49:14;;;;;;;5.97;1.10;;;;;;;22.46;44.15;101769.72;5028496;28;20338;-56
2022/07/28 10:51:41;;;;;;;4.82;1.30;;;;;;;22.76;44.95;101772.47;5036406;28;20017;-57
2022/07/28 10:54:18;;;;;;;4.82;1.23;;;;;;;22.81;44.14;101770.75;5024415;28;20172;-58
2022/07/28 10:56:51;;;;;;;2.25;1.05;;;;;;;22.84;43.17;101764.91;5023148;28;20233;-57
2022/07/28 10:59:52;;;;;;;2.42;0.90;;;;;;;22.84;42.74;101769.47;5028533;28;20585;-57
2022/07/28 11:02:43;;;;;;;2.53;1.08;;;;;;;22.82;42.68;101766.16;5026625;28;20052;-57
2022/07/28 11:05:41;;;;;;;4.40;0.90;;;;;;;22.87;42.54;101760.91;5029260;28;20021;-56
2022/07/28 11:08:27;;;;;;;4.20;1.38;;;;;;;22.80;41.68;101766.34;5024951;28;20033;-57
2022/07/28 11:10:54;;;;;;;3.63;1.20;;;;;;;22.79;42.02;101767.41;5024862;28;20678;-57
2022/07/28 11:13:23;;;;;;;3.45;1.15;;;;;;;22.79;41.17;101766.59;5028691;28;20033;-58
2022/07/28 11:15:49;;;;;;;3.38;1.50;;;;;;;22.76;41.47;101750.78;5022178;28;20030;-56
2022/07/28 11:18:14;;;;;;;9.02;1.15;;;;;;;22.72;40.76;101763.16;5025099;28;20021;-57
2022/07/28 11:20:51;;;;;;;3.28;1.15;;;;;;;22.75;40.94;101754.56;5025558;28;20104;-57
2022/07/28 11:23:46;;;;;;;6.07;1.40;;;;;;;22.77;41.31;101745.16;5026686;28;20036;-57
2022/07/28 11:26:21;;;;;;;4.45;1.20;;;;;;;22.74;41.73;101758.31;5029004;28;20083;-57
2022/07/28 11:28:58;;;;;;;5.15;1.20;;;;;;;22.77;41.84;101749.75;5029597;28;20033;-57